sensor_id;sensor_type;location;lat;lon;timestamp;temperature;humidity
45761;DHT22;31471;51.040;14.414;2023-02-19T00:01:20;8.00;99.90
45761;DHT22;31471;51.040;14.414;2023-02-19T00:03:57;8.00;99.90
45761;DHT22;31471;51.040;14.414;2023-02-19T00:06:23;8.00;99.90
45761;DHT22;31471;51.040;14.414;2023-02-19T00:08:50;7.90;99.90
45761;DHT22;31471;51.040;14.414;2023-02-19T00:11:19;7.90;99.90
45761;DHT22;31471;51.040;14.414;2023-02-19T00:13:47;7.90;99.90
45761;DHT22;31471;51.040;14.414;2023-02-19T00:16:22;7.90;99.90
45761;DHT22;31471;51.040;14.414;2023-02-19T00:18:48;7.90;99.90
45761;DHT22;31471;51.040;14.414;2023-02-19T00:21:14;7.80;99.90
45761;DHT22;31471;51.040;14.414;2023-02-19T00:23:40;7.80;99.90
45761;DHT22;31471;51.040;14.414;2023-02-19T00:26:08;7.80;99.90
45761;DHT22;31471;51.040;14.414;2023-02-19T00:28:34;7.80;99.90
45761;DHT22;31471;51.040;14.414;2023-02-19T00:33:30;7.80;99.90
45761;DHT22;31471;51.040;14.414;2023-02-19T00:36:02;7.80;99.90
45761;DHT22;31471;51.040;14.414;2023-02-19T00:38:29;7.80;99.90
45761;DHT22;31471;51.040;14.414;2023-02-19T00:40:55;7.80;99.90
45761;DHT22;31471;51.040;14.414;2023-02-19T00:43:22;7.80;99.90
45761;DHT22;31471;51.040;14.414;2023-02-19T00:45:48;7.80;99.90
45761;DHT22;31471;51.040;14.414;2023-02-19T00:48:14;7.80;99.90
45761;DHT22;31471;51.040;14.414;2023-02-19T00:50:40;7.90;99.90
45761;DHT22;31471;51.040;14.414;2023-02-19T00:53:05;7.90;99.90
45761;DHT22;31471;51.040;14.414;2023-02-19T00:55:31;7.90;99.90
45761;DHT22;31471;51.040;14.414;2023-02-19T00:57:56;7.90;99.90
45761;DHT22;31471;51.040;14.414;2023-02-19T01:00:22;7.90;99.90
45761;DHT22;31471;51.040;14.414;2023-02-19T01:02:48;7.90;99.90
45761;DHT22;31471;51.040;14.414;2023-02-19T01:05:13;7.90;99.90
45761;DHT22;31471;51.040;14.414;2023-02-19T01:07:39;7.90;99.90
45761;DHT22;31471;51.040;14.414;2023-02-19T01:10:06;7.90;99.90
45761;DHT22;31471;51.040;14.414;2023-02-19T01:12:32;7.90;99.90
45761;DHT22;31471;51.040;14.414;2023-02-19T01:14:57;7.90;99.90
45761;DHT22;31471;51.040;14.414;2023-02-19T01:17:23;7.90;99.90
45761;DHT22;31471;51.040;14.414;2023-02-19T01:19:48;7.80;99.90
45761;DHT22;31471;51.040;14.414;2023-02-19T01:22:14;7.90;99.90
45761;DHT22;31471;51.040;14.414;2023-02-19T01:24:40;7.90;99.90
45761;DHT22;31471;51.040;14.414;2023-02-19T01:27:05;7.80;99.90
45761;DHT22;31471;51.040;14.414;2023-02-19T01:29:31;7.80;99.90
45761;DHT22;31471;51.040;14.414;2023-02-19T01:31:56;7.90;99.90
45761;DHT22;31471;51.040;14.414;2023-02-19T01:34:22;7.80;99.90
45761;DHT22;31471;51.040;14.414;2023-02-19T01:36:47;7.90;99.90
45761;DHT22;31471;51.040;14.414;2023-02-19T01:39:13;7.80;99.90
45761;DHT22;31471;51.040;14.414;2023-02-19T01:41:40;7.90;99.90
45761;DHT22;31471;51.040;14.414;2023-02-19T01:46:40;7.90;99.90
45761;DHT22;31471;51.040;14.414;2023-02-19T01:49:15;7.80;99.90
45761;DHT22;31471;51.040;14.414;2023-02-19T01:51:47;7.90;99.90
45761;DHT22;31471;51.040;14.414;2023-02-19T01:54:16;7.80;99.90
45761;DHT22;31471;51.040;14.414;2023-02-19T01:56:45;7.80;99.90
45761;DHT22;31471;51.040;14.414;2023-02-19T01:59:12;7.80;99.90
45761;DHT22;31471;51.040;14.414;2023-02-19T02:01:38;7.80;99.90
45761;DHT22;31471;51.040;14.414;2023-02-19T02:04:06;7.80;99.90
45761;DHT22;31471;51.040;14.414;2023-02-19T02:06:44;7.80;99.90
45761;DHT22;31471;51.040;14.414;2023-02-19T02:09:12;7.80;99.90
45761;DHT22;31471;51.040;14.414;2023-02-19T02:11:57;7.80;99.90
45761;DHT22;31471;51.040;14.414;2023-02-19T02:14:29;7.80;99.90
45761;DHT22;31471;51.040;14.414;2023-02-19T02:17:09;7.80;99.90
45761;DHT22;31471;51.040;14.414;2023-02-19T02:22:26;7.80;99.90
45761;DHT22;31471;51.040;14.414;2023-02-19T02:25:18;7.70;99.90
45761;DHT22;31471;51.040;14.414;2023-02-19T02:30:22;7.70;99.90
45761;DHT22;31471;51.040;14.414;2023-02-19T02:33:10;7.60;99.90
45761;DHT22;31471;51.040;14.414;2023-02-19T02:35:48;7.50;99.90
45761;DHT22;31471;51.040;14.414;2023-02-19T02:38:17;7.50;99.90
45761;DHT22;31471;51.040;14.414;2023-02-19T02:40:45;7.50;99.90
45761;DHT22;31471;51.040;14.414;2023-02-19T02:43:13;7.50;99.90
45761;DHT22;31471;51.040;14.414;2023-02-19T02:45:39;7.50;99.90
45761;DHT22;31471;51.040;14.414;2023-02-19T02:48:22;7.60;99.90
45761;DHT22;31471;51.040;14.414;2023-02-19T02:51:09;7.50;99.90
45761;DHT22;31471;51.040;14.414;2023-02-19T02:53:57;7.60;99.90
45761;DHT22;31471;51.040;14.414;2023-02-19T02:56:44;7.60;99.90
45761;DHT22;31471;51.040;14.414;2023-02-19T02:59:13;7.50;99.90
45761;DHT22;31471;51.040;14.414;2023-02-19T03:01:44;7.40;99.90
45761;DHT22;31471;51.040;14.414;2023-02-19T03:04:31;7.40;99.90
45761;DHT22;31471;51.040;14.414;2023-02-19T03:07:04;7.50;99.90
45761;DHT22;31471;51.040;14.414;2023-02-19T03:09:36;7.40;99.90
45761;DHT22;31471;51.040;14.414;2023-02-19T03:12:12;7.50;99.90
45761;DHT22;31471;51.040;14.414;2023-02-19T03:15:00;7.50;99.90
45761;DHT22;31471;51.040;14.414;2023-02-19T03:17:49;7.40;99.90
45761;DHT22;31471;51.040;14.414;2023-02-19T03:20:38;7.40;99.90
45761;DHT22;31471;51.040;14.414;2023-02-19T03:23:06;7.40;99.90
45761;DHT22;31471;51.040;14.414;2023-02-19T03:25:35;7.40;99.90
45761;DHT22;31471;51.040;14.414;2023-02-19T03:28:32;7.40;99.90
45761;DHT22;31471;51.040;14.414;2023-02-19T03:31:20;7.40;99.90
45761;DHT22;31471;51.040;14.414;2023-02-19T03:33:52;7.30;99.90
45761;DHT22;31471;51.040;14.414;2023-02-19T03:36:19;7.30;99.90
45761;DHT22;31471;51.040;14.414;2023-02-19T03:38:59;7.30;99.90
45761;DHT22;31471;51.040;14.414;2023-02-19T03:41:55;7.20;99.90
45761;DHT22;31471;51.040;14.414;2023-02-19T03:44:40;7.30;99.90
45761;DHT22;31471;51.040;14.414;2023-02-19T03:47:32;7.20;99.90
45761;DHT22;31471;51.040;14.414;2023-02-19T03:53:21;7.30;99.90
45761;DHT22;31471;51.040;14.414;2023-02-19T03:56:10;7.20;99.90
45761;DHT22;31471;51.040;14.414;2023-02-19T03:58:43;7.20;99.90
45761;DHT22;31471;51.040;14.414;2023-02-19T04:01:31;7.20;99.90
45761;DHT22;31471;51.040;14.414;2023-02-19T04:04:17;7.10;99.90
45761;DHT22;31471;51.040;14.414;2023-02-19T04:06:45;7.10;99.90
45761;DHT22;31471;51.040;14.414;2023-02-19T04:09:18;7.10;99.90
45761;DHT22;31471;51.040;14.414;2023-02-19T04:11:49;7.10;99.90
45761;DHT22;31471;51.040;14.414;2023-02-19T04:16:48;7.10;99.90
45761;DHT22;31471;51.040;14.414;2023-02-19T04:19:18;7.10;99.90
45761;DHT22;31471;51.040;14.414;2023-02-19T04:21:46;7.10;99.90
45761;DHT22;31471;51.040;14.414;2023-02-19T04:24:49;7.10;99.90
45761;DHT22;31471;51.040;14.414;2023-02-19T04:27:08;7.10;99.90
45761;DHT22;31471;51.040;14.414;2023-02-19T04:29:33;7.00;99.90
45761;DHT22;31471;51.040;14.414;2023-02-19T04:31:59;7.00;99.90
45761;DHT22;31471;51.040;14.414;2023-02-19T04:34:25;7.10;99.90
45761;DHT22;31471;51.040;14.414;2023-02-19T04:36:50;7.10;99.90
45761;DHT22;31471;51.040;14.414;2023-02-19T04:39:16;7.10;99.90
45761;DHT22;31471;51.040;14.414;2023-02-19T04:41:41;7.00;99.90
45761;DHT22;31471;51.040;14.414;2023-02-19T04:44:07;7.00;99.90
45761;DHT22;31471;51.040;14.414;2023-02-19T04:46:32;7.00;99.90
45761;DHT22;31471;51.040;14.414;2023-02-19T04:48:58;7.10;99.90
45761;DHT22;31471;51.040;14.414;2023-02-19T04:51:24;7.00;99.90
45761;DHT22;31471;51.040;14.414;2023-02-19T04:53:49;7.00;99.90
45761;DHT22;31471;51.040;14.414;2023-02-19T04:56:16;7.00;99.90
45761;DHT22;31471;51.040;14.414;2023-02-19T04:58:42;7.10;99.90
45761;DHT22;31471;51.040;14.414;2023-02-19T05:01:08;7.00;99.90
45761;DHT22;31471;51.040;14.414;2023-02-19T05:03:34;7.00;99.90
45761;DHT22;31471;51.040;14.414;2023-02-19T05:06:05;7.00;99.90
45761;DHT22;31471;51.040;14.414;2023-02-19T05:08:31;7.00;99.90
45761;DHT22;31471;51.040;14.414;2023-02-19T05:11:01;7.00;99.90
45761;DHT22;31471;51.040;14.414;2023-02-19T05:13:27;7.00;99.90
45761;DHT22;31471;51.040;14.414;2023-02-19T05:16:02;7.00;99.90
45761;DHT22;31471;51.040;14.414;2023-02-19T05:18:30;7.00;99.90
45761;DHT22;31471;51.040;14.414;2023-02-19T05:20:57;7.00;99.90
45761;DHT22;31471;51.040;14.414;2023-02-19T05:23:23;7.00;99.90
45761;DHT22;31471;51.040;14.414;2023-02-19T05:25:49;7.00;99.90
45761;DHT22;31471;51.040;14.414;2023-02-19T05:28:14;7.00;99.90
45761;DHT22;31471;51.040;14.414;2023-02-19T05:30:52;7.00;99.90
45761;DHT22;31471;51.040;14.414;2023-02-19T05:33:19;7.00;99.90
45761;DHT22;31471;51.040;14.414;2023-02-19T05:35:46;7.00;99.90
45761;DHT22;31471;51.040;14.414;2023-02-19T05:38:13;7.00;99.90
45761;DHT22;31471;51.040;14.414;2023-02-19T05:40:38;7.00;99.90
45761;DHT22;31471;51.040;14.414;2023-02-19T05:43:04;6.90;99.90
45761;DHT22;31471;51.040;14.414;2023-02-19T05:45:30;6.80;99.90
45761;DHT22;31471;51.040;14.414;2023-02-19T05:47:56;6.80;99.90
45761;DHT22;31471;51.040;14.414;2023-02-19T05:50:22;6.80;99.90
45761;DHT22;31471;51.040;14.414;2023-02-19T05:52:47;6.80;99.90
45761;DHT22;31471;51.040;14.414;2023-02-19T05:55:13;6.80;99.90
45761;DHT22;31471;51.040;14.414;2023-02-19T05:57:43;6.80;99.90
45761;DHT22;31471;51.040;14.414;2023-02-19T06:00:11;6.80;99.90
45761;DHT22;31471;51.040;14.414;2023-02-19T06:02:37;6.70;99.90
45761;DHT22;31471;51.040;14.414;2023-02-19T06:05:04;6.70;99.90
45761;DHT22;31471;51.040;14.414;2023-02-19T06:07:30;6.70;99.90
45761;DHT22;31471;51.040;14.414;2023-02-19T06:09:56;6.60;99.90
45761;DHT22;31471;51.040;14.414;2023-02-19T06:12:22;6.60;99.90
45761;DHT22;31471;51.040;14.414;2023-02-19T06:14:47;6.60;99.90
45761;DHT22;31471;51.040;14.414;2023-02-19T06:17:13;6.60;99.90
45761;DHT22;31471;51.040;14.414;2023-02-19T06:19:39;6.60;99.90
45761;DHT22;31471;51.040;14.414;2023-02-19T06:22:04;6.60;99.90
45761;DHT22;31471;51.040;14.414;2023-02-19T06:24:30;6.70;99.90
45761;DHT22;31471;51.040;14.414;2023-02-19T06:26:56;6.70;99.90
45761;DHT22;31471;51.040;14.414;2023-02-19T06:29:21;6.80;99.90
45761;DHT22;31471;51.040;14.414;2023-02-19T06:31:47;6.70;99.90
45761;DHT22;31471;51.040;14.414;2023-02-19T06:34:13;6.70;99.90
45761;DHT22;31471;51.040;14.414;2023-02-19T06:36:38;6.80;99.90
45761;DHT22;31471;51.040;14.414;2023-02-19T06:39:04;6.70;99.90
45761;DHT22;31471;51.040;14.414;2023-02-19T06:41:30;6.80;99.90
45761;DHT22;31471;51.040;14.414;2023-02-19T06:43:56;6.80;99.90
45761;DHT22;31471;51.040;14.414;2023-02-19T06:46:22;6.80;99.90
45761;DHT22;31471;51.040;14.414;2023-02-19T06:48:48;6.80;99.90
45761;DHT22;31471;51.040;14.414;2023-02-19T06:51:16;6.80;99.90
45761;DHT22;31471;51.040;14.414;2023-02-19T06:53:44;6.70;99.90
45761;DHT22;31471;51.040;14.414;2023-02-19T06:56:27;6.70;99.90
45761;DHT22;31471;51.040;14.414;2023-02-19T06:58:55;6.70;99.90
45761;DHT22;31471;51.040;14.414;2023-02-19T07:01:22;6.80;99.90
45761;DHT22;31471;51.040;14.414;2023-02-19T07:03:48;6.80;99.90
45761;DHT22;31471;51.040;14.414;2023-02-19T07:06:14;6.80;99.90
45761;DHT22;31471;51.040;14.414;2023-02-19T07:08:39;6.80;99.90
45761;DHT22;31471;51.040;14.414;2023-02-19T07:11:05;6.80;99.90
45761;DHT22;31471;51.040;14.414;2023-02-19T07:13:31;6.80;99.90
45761;DHT22;31471;51.040;14.414;2023-02-19T07:15:58;6.90;99.90
45761;DHT22;31471;51.040;14.414;2023-02-19T07:18:24;6.90;99.90
45761;DHT22;31471;51.040;14.414;2023-02-19T07:20:50;6.90;99.90
45761;DHT22;31471;51.040;14.414;2023-02-19T07:23:15;6.90;99.90
45761;DHT22;31471;51.040;14.414;2023-02-19T07:25:41;6.90;99.90
45761;DHT22;31471;51.040;14.414;2023-02-19T07:28:06;6.70;99.90
45761;DHT22;31471;51.040;14.414;2023-02-19T07:30:32;6.30;99.90
45761;DHT22;31471;51.040;14.414;2023-02-19T07:32:58;6.00;99.90
45761;DHT22;31471;51.040;14.414;2023-02-19T07:35:23;5.80;99.90
45761;DHT22;31471;51.040;14.414;2023-02-19T07:37:49;5.70;99.90
45761;DHT22;31471;51.040;14.414;2023-02-19T07:40:14;5.60;99.90
45761;DHT22;31471;51.040;14.414;2023-02-19T07:42:40;5.60;99.90
45761;DHT22;31471;51.040;14.414;2023-02-19T07:45:06;5.40;99.90
45761;DHT22;31471;51.040;14.414;2023-02-19T07:47:31;5.30;99.90
45761;DHT22;31471;51.040;14.414;2023-02-19T07:49:57;5.30;99.90
45761;DHT22;31471;51.040;14.414;2023-02-19T07:52:22;5.30;99.90
45761;DHT22;31471;51.040;14.414;2023-02-19T07:54:48;5.30;99.90
45761;DHT22;31471;51.040;14.414;2023-02-19T07:57:14;5.20;99.90
45761;DHT22;31471;51.040;14.414;2023-02-19T07:59:39;5.30;99.90
45761;DHT22;31471;51.040;14.414;2023-02-19T08:02:16;5.20;99.90
45761;DHT22;31471;51.040;14.414;2023-02-19T08:05:01;5.20;99.90
45761;DHT22;31471;51.040;14.414;2023-02-19T08:07:31;5.30;99.90
45761;DHT22;31471;51.040;14.414;2023-02-19T08:09:57;5.30;99.90
45761;DHT22;31471;51.040;14.414;2023-02-19T08:12:41;5.10;99.90
45761;DHT22;31471;51.040;14.414;2023-02-19T08:15:25;5.10;99.90
45761;DHT22;31471;51.040;14.414;2023-02-19T08:17:50;5.00;99.90
45761;DHT22;31471;51.040;14.414;2023-02-19T08:20:16;5.00;99.90
45761;DHT22;31471;51.040;14.414;2023-02-19T08:22:41;5.00;99.90
45761;DHT22;31471;51.040;14.414;2023-02-19T08:25:07;4.90;99.90
45761;DHT22;31471;51.040;14.414;2023-02-19T08:27:33;5.10;99.90
45761;DHT22;31471;51.040;14.414;2023-02-19T08:29:58;5.00;99.90
45761;DHT22;31471;51.040;14.414;2023-02-19T08:32:24;5.00;99.90
45761;DHT22;31471;51.040;14.414;2023-02-19T08:34:49;5.00;99.90
45761;DHT22;31471;51.040;14.414;2023-02-19T08:37:15;4.90;99.90
45761;DHT22;31471;51.040;14.414;2023-02-19T08:39:40;5.00;99.90
45761;DHT22;31471;51.040;14.414;2023-02-19T08:42:06;5.00;99.90
45761;DHT22;31471;51.040;14.414;2023-02-19T08:44:31;4.80;99.90
45761;DHT22;31471;51.040;14.414;2023-02-19T08:46:57;4.70;99.90
45761;DHT22;31471;51.040;14.414;2023-02-19T08:49:25;4.70;99.90
45761;DHT22;31471;51.040;14.414;2023-02-19T08:51:51;4.70;99.90
45761;DHT22;31471;51.040;14.414;2023-02-19T08:54:16;4.70;99.90
45761;DHT22;31471;51.040;14.414;2023-02-19T08:56:42;4.70;99.90
45761;DHT22;31471;51.040;14.414;2023-02-19T08:59:08;4.60;99.90
45761;DHT22;31471;51.040;14.414;2023-02-19T09:01:33;4.70;99.90
45761;DHT22;31471;51.040;14.414;2023-02-19T09:03:59;4.60;99.90
45761;DHT22;31471;51.040;14.414;2023-02-19T09:06:25;4.50;99.90
45761;DHT22;31471;51.040;14.414;2023-02-19T09:08:50;4.50;99.90
45761;DHT22;31471;51.040;14.414;2023-02-19T09:11:16;4.30;99.90
45761;DHT22;31471;51.040;14.414;2023-02-19T09:13:42;4.40;99.90
45761;DHT22;31471;51.040;14.414;2023-02-19T09:16:08;4.10;99.90
45761;DHT22;31471;51.040;14.414;2023-02-19T09:18:34;4.30;99.90
45761;DHT22;31471;51.040;14.414;2023-02-19T09:21:01;4.00;99.90
45761;DHT22;31471;51.040;14.414;2023-02-19T09:23:29;3.70;99.90
45761;DHT22;31471;51.040;14.414;2023-02-19T09:25:59;3.80;99.90
45761;DHT22;31471;51.040;14.414;2023-02-19T09:28:26;3.80;99.90
45761;DHT22;31471;51.040;14.414;2023-02-19T09:30:52;3.70;99.90
45761;DHT22;31471;51.040;14.414;2023-02-19T09:33:17;3.60;99.90
45761;DHT22;31471;51.040;14.414;2023-02-19T09:35:43;3.70;99.90
45761;DHT22;31471;51.040;14.414;2023-02-19T09:38:08;3.60;99.90
45761;DHT22;31471;51.040;14.414;2023-02-19T09:40:36;3.30;99.90
45761;DHT22;31471;51.040;14.414;2023-02-19T09:43:08;3.50;99.90
45761;DHT22;31471;51.040;14.414;2023-02-19T09:45:37;3.40;99.90
45761;DHT22;31471;51.040;14.414;2023-02-19T09:48:03;3.30;99.90
45761;DHT22;31471;51.040;14.414;2023-02-19T09:50:38;3.40;99.90
45761;DHT22;31471;51.040;14.414;2023-02-19T09:53:15;3.50;99.90
45761;DHT22;31471;51.040;14.414;2023-02-19T09:55:43;3.40;99.90
45761;DHT22;31471;51.040;14.414;2023-02-19T09:58:34;3.50;99.90
45761;DHT22;31471;51.040;14.414;2023-02-19T10:01:02;3.40;99.90
45761;DHT22;31471;51.040;14.414;2023-02-19T10:03:31;3.60;99.90
45761;DHT22;31471;51.040;14.414;2023-02-19T10:06:25;3.70;99.90
45761;DHT22;31471;51.040;14.414;2023-02-19T10:08:53;3.80;99.90
45761;DHT22;31471;51.040;14.414;2023-02-19T10:11:20;3.80;99.90
45761;DHT22;31471;51.040;14.414;2023-02-19T10:14:07;3.70;99.90
45761;DHT22;31471;51.040;14.414;2023-02-19T10:16:42;3.70;99.90
45761;DHT22;31471;51.040;14.414;2023-02-19T10:19:13;3.70;99.90
45761;DHT22;31471;51.040;14.414;2023-02-19T10:21:40;3.70;99.90
45761;DHT22;31471;51.040;14.414;2023-02-19T10:24:07;3.90;99.90
45761;DHT22;31471;51.040;14.414;2023-02-19T10:26:33;3.90;99.90
45761;DHT22;31471;51.040;14.414;2023-02-19T10:29:02;3.80;99.90
45761;DHT22;31471;51.040;14.414;2023-02-19T10:31:30;3.80;99.90
45761;DHT22;31471;51.040;14.414;2023-02-19T10:33:58;3.90;99.90
45761;DHT22;31471;51.040;14.414;2023-02-19T10:36:38;4.20;99.90
45761;DHT22;31471;51.040;14.414;2023-02-19T10:39:25;4.10;99.90
45761;DHT22;31471;51.040;14.414;2023-02-19T10:41:54;4.30;99.90
45761;DHT22;31471;51.040;14.414;2023-02-19T10:44:28;4.20;99.90
45761;DHT22;31471;51.040;14.414;2023-02-19T10:46:57;4.40;99.90
45761;DHT22;31471;51.040;14.414;2023-02-19T10:49:38;4.10;99.90
45761;DHT22;31471;51.040;14.414;2023-02-19T10:52:20;4.30;99.90
45761;DHT22;31471;51.040;14.414;2023-02-19T10:54:57;4.40;99.90
45761;DHT22;31471;51.040;14.414;2023-02-19T10:57:37;4.30;99.90
45761;DHT22;31471;51.040;14.414;2023-02-19T11:00:21;4.40;99.90
45761;DHT22;31471;51.040;14.414;2023-02-19T11:02:47;4.50;99.90
45761;DHT22;31471;51.040;14.414;2023-02-19T11:05:17;4.50;99.90
45761;DHT22;31471;51.040;14.414;2023-02-19T11:07:49;4.50;99.90
45761;DHT22;31471;51.040;14.414;2023-02-19T11:10:28;4.50;99.90
45761;DHT22;31471;51.040;14.414;2023-02-19T11:12:58;4.40;99.90
45761;DHT22;31471;51.040;14.414;2023-02-19T11:15:31;4.50;99.90
45761;DHT22;31471;51.040;14.414;2023-02-19T11:20:28;4.50;99.90
45761;DHT22;31471;51.040;14.414;2023-02-19T11:22:59;4.20;99.90
45761;DHT22;31471;51.040;14.414;2023-02-19T11:25:26;4.20;99.90
45761;DHT22;31471;51.040;14.414;2023-02-19T11:28:03;4.30;99.90
45761;DHT22;31471;51.040;14.414;2023-02-19T11:30:44;4.40;99.90
45761;DHT22;31471;51.040;14.414;2023-02-19T11:33:23;4.40;99.90
45761;DHT22;31471;51.040;14.414;2023-02-19T11:39:01;4.30;99.90
45761;DHT22;31471;51.040;14.414;2023-02-19T11:50:02;4.20;99.90
45761;DHT22;31471;51.040;14.414;2023-02-19T11:52:52;4.40;99.90
45761;DHT22;31471;51.040;14.414;2023-02-19T11:55:33;4.70;99.90
45761;DHT22;31471;51.040;14.414;2023-02-19T12:01:07;4.70;99.90
45761;DHT22;31471;51.040;14.414;2023-02-19T12:09:40;4.60;99.90
45761;DHT22;31471;51.040;14.414;2023-02-19T12:15:03;4.70;99.90
45761;DHT22;31471;51.040;14.414;2023-02-19T12:23:16;4.60;99.90
45761;DHT22;31471;51.040;14.414;2023-02-19T12:26:00;4.60;99.90
45761;DHT22;31471;51.040;14.414;2023-02-19T12:31:39;4.40;99.90
45761;DHT22;31471;51.040;14.414;2023-02-19T12:40:13;4.70;99.90
45761;DHT22;31471;51.040;14.414;2023-02-19T12:43:00;4.60;99.90
45761;DHT22;31471;51.040;14.414;2023-02-19T12:45:45;4.70;99.90
45761;DHT22;31471;51.040;14.414;2023-02-19T12:48:44;4.70;99.90
45761;DHT22;31471;51.040;14.414;2023-02-19T12:51:39;4.80;99.90
45761;DHT22;31471;51.040;14.414;2023-02-19T12:54:25;4.60;99.90
45761;DHT22;31471;51.040;14.414;2023-02-19T12:57:08;4.80;99.90
45761;DHT22;31471;51.040;14.414;2023-02-19T12:59:57;4.80;99.90
45761;DHT22;31471;51.040;14.414;2023-02-19T13:02:49;4.80;99.90
45761;DHT22;31471;51.040;14.414;2023-02-19T13:05:48;4.90;99.90
45761;DHT22;31471;51.040;14.414;2023-02-19T13:08:26;4.90;99.90
45761;DHT22;31471;51.040;14.414;2023-02-19T13:11:15;4.60;99.90
45761;DHT22;31471;51.040;14.414;2023-02-19T13:13:50;4.80;99.90
45761;DHT22;31471;51.040;14.414;2023-02-19T13:16:20;4.90;99.90
45761;DHT22;31471;51.040;14.414;2023-02-19T13:18:57;4.80;99.90
45761;DHT22;31471;51.040;14.414;2023-02-19T13:21:25;4.90;99.90
45761;DHT22;31471;51.040;14.414;2023-02-19T13:24:13;5.10;99.90
45761;DHT22;31471;51.040;14.414;2023-02-19T13:30:16;5.40;99.90
45761;DHT22;31471;51.040;14.414;2023-02-19T13:33:13;5.10;99.90
45761;DHT22;31471;51.040;14.414;2023-02-19T13:38:40;5.00;99.90
45761;DHT22;31471;51.040;14.414;2023-02-19T13:41:16;5.10;99.90
45761;DHT22;31471;51.040;14.414;2023-02-19T13:43:43;5.10;99.90
45761;DHT22;31471;51.040;14.414;2023-02-19T13:46:13;4.90;99.90
45761;DHT22;31471;51.040;14.414;2023-02-19T13:48:41;5.10;99.90
45761;DHT22;31471;51.040;14.414;2023-02-19T13:59:24;5.20;99.90
45761;DHT22;31471;51.040;14.414;2023-02-19T14:04:23;5.20;99.90
45761;DHT22;31471;51.040;14.414;2023-02-19T14:12:04;5.20;99.90
45761;DHT22;31471;51.040;14.414;2023-02-19T14:14:48;5.30;99.90
45761;DHT22;31471;51.040;14.414;2023-02-19T14:30:27;5.20;99.90
45761;DHT22;31471;51.040;14.414;2023-02-19T14:32:54;5.00;99.90
45761;DHT22;31471;51.040;14.414;2023-02-19T14:35:34;4.90;99.90
45761;DHT22;31471;51.040;14.414;2023-02-19T14:38:02;5.00;99.90
45761;DHT22;31471;51.040;14.414;2023-02-19T14:40:37;4.90;99.90
45761;DHT22;31471;51.040;14.414;2023-02-19T14:43:04;4.80;99.90
45761;DHT22;31471;51.040;14.414;2023-02-19T14:45:37;4.90;99.90
45761;DHT22;31471;51.040;14.414;2023-02-19T14:48:05;4.90;99.90
45761;DHT22;31471;51.040;14.414;2023-02-19T14:50:31;5.00;99.90
45761;DHT22;31471;51.040;14.414;2023-02-19T14:53:02;5.00;99.90
45761;DHT22;31471;51.040;14.414;2023-02-19T14:58:03;5.00;99.90
45761;DHT22;31471;51.040;14.414;2023-02-19T15:00:34;5.10;99.90
45761;DHT22;31471;51.040;14.414;2023-02-19T15:03:01;5.30;99.90
45761;DHT22;31471;51.040;14.414;2023-02-19T15:05:33;5.20;99.90
45761;DHT22;31471;51.040;14.414;2023-02-19T15:08:03;5.10;99.90
45761;DHT22;31471;51.040;14.414;2023-02-19T15:10:32;5.00;99.90
45761;DHT22;31471;51.040;14.414;2023-02-19T15:13:04;5.00;99.90
45761;DHT22;31471;51.040;14.414;2023-02-19T15:15:37;5.00;99.90
45761;DHT22;31471;51.040;14.414;2023-02-19T15:18:05;4.90;99.90
45761;DHT22;31471;51.040;14.414;2023-02-19T15:20:33;4.70;99.90
45761;DHT22;31471;51.040;14.414;2023-02-19T15:23:00;4.80;99.90
45761;DHT22;31471;51.040;14.414;2023-02-19T15:25:32;4.80;99.90
45761;DHT22;31471;51.040;14.414;2023-02-19T15:31:13;4.70;99.90
45761;DHT22;31471;51.040;14.414;2023-02-19T15:33:39;4.50;99.90
45761;DHT22;31471;51.040;14.414;2023-02-19T15:36:12;4.50;99.90
45761;DHT22;31471;51.040;14.414;2023-02-19T15:38:38;4.50;99.90
45761;DHT22;31471;51.040;14.414;2023-02-19T15:41:03;4.40;99.90
45761;DHT22;31471;51.040;14.414;2023-02-19T15:43:38;4.40;99.90
45761;DHT22;31471;51.040;14.414;2023-02-19T15:46:24;4.40;99.90
45761;DHT22;31471;51.040;14.414;2023-02-19T15:49:05;4.40;99.90
45761;DHT22;31471;51.040;14.414;2023-02-19T15:51:50;4.40;99.90
45761;DHT22;31471;51.040;14.414;2023-02-19T15:54:26;4.40;99.90
45761;DHT22;31471;51.040;14.414;2023-02-19T15:56:56;4.30;99.90
45761;DHT22;31471;51.040;14.414;2023-02-19T15:59:41;4.20;99.90
45761;DHT22;31471;51.040;14.414;2023-02-19T16:02:13;4.20;99.90
45761;DHT22;31471;51.040;14.414;2023-02-19T16:04:42;4.10;99.90
45761;DHT22;31471;51.040;14.414;2023-02-19T16:07:23;4.10;99.90
45761;DHT22;31471;51.040;14.414;2023-02-19T16:10:15;4.10;99.90
45761;DHT22;31471;51.040;14.414;2023-02-19T16:12:42;4.00;99.90
45761;DHT22;31471;51.040;14.414;2023-02-19T16:15:17;3.90;99.90
45761;DHT22;31471;51.040;14.414;2023-02-19T16:17:44;3.90;99.90
45761;DHT22;31471;51.040;14.414;2023-02-19T16:20:36;4.00;99.90
45761;DHT22;31471;51.040;14.414;2023-02-19T16:23:04;4.00;99.90
45761;DHT22;31471;51.040;14.414;2023-02-19T16:25:39;4.00;99.90
45761;DHT22;31471;51.040;14.414;2023-02-19T16:28:25;3.90;99.90
45761;DHT22;31471;51.040;14.414;2023-02-19T16:30:58;3.90;99.90
45761;DHT22;31471;51.040;14.414;2023-02-19T16:33:34;3.80;99.90
45761;DHT22;31471;51.040;14.414;2023-02-19T16:41:33;3.70;99.90
45761;DHT22;31471;51.040;14.414;2023-02-19T16:43:59;3.50;99.90
45761;DHT22;31471;51.040;14.414;2023-02-19T16:46:31;3.50;99.90
45761;DHT22;31471;51.040;14.414;2023-02-19T16:48:56;3.40;99.90
45761;DHT22;31471;51.040;14.414;2023-02-19T16:51:26;3.30;99.90
45761;DHT22;31471;51.040;14.414;2023-02-19T16:53:52;3.30;99.90
45761;DHT22;31471;51.040;14.414;2023-02-19T16:56:19;3.30;99.90
45761;DHT22;31471;51.040;14.414;2023-02-19T16:58:48;3.30;99.90
45761;DHT22;31471;51.040;14.414;2023-02-19T17:01:13;3.30;99.90
45761;DHT22;31471;51.040;14.414;2023-02-19T17:03:39;3.20;99.90
45761;DHT22;31471;51.040;14.414;2023-02-19T17:06:05;3.10;99.90
45761;DHT22;31471;51.040;14.414;2023-02-19T17:08:36;3.10;99.90
45761;DHT22;31471;51.040;14.414;2023-02-19T17:11:05;3.00;99.90
45761;DHT22;31471;51.040;14.414;2023-02-19T17:13:31;2.90;99.90
45761;DHT22;31471;51.040;14.414;2023-02-19T17:15:57;2.80;99.90
45761;DHT22;31471;51.040;14.414;2023-02-19T17:18:23;2.70;99.90
45761;DHT22;31471;51.040;14.414;2023-02-19T17:20:55;2.70;99.90
45761;DHT22;31471;51.040;14.414;2023-02-19T17:23:21;2.60;99.90
45761;DHT22;31471;51.040;14.414;2023-02-19T17:25:47;2.50;99.90
45761;DHT22;31471;51.040;14.414;2023-02-19T17:28:12;2.50;99.90
45761;DHT22;31471;51.040;14.414;2023-02-19T17:30:38;2.50;99.90
45761;DHT22;31471;51.040;14.414;2023-02-19T17:33:03;2.40;99.90
45761;DHT22;31471;51.040;14.414;2023-02-19T17:35:29;2.40;99.90
45761;DHT22;31471;51.040;14.414;2023-02-19T17:37:55;2.40;99.90